Time;durP1;ratioP1;P1;durP2;ratioP2;P2;SDS_P1;SDS_P2;PMS_P1;PMS_P2;Temp;Humidity;BMP_temperature;BMP_pressure;BME280_temperature;BME280_humidity;BME280_pressure;Samples;Min_cycle;Max_cycle;Signal;HPM_P1;HPM_P2
2022/12/01 03:47:15;;;;;;;37.53;22.57;;;12.20;70.60;;;;;;6133314;22;1390387;-77
2022/12/01 03:49:41;;;;;;;36.75;21.92;;;12.20;69.90;;;;;;6142438;23;20025;-78
2022/12/01 03:52:35;;;;;;;40.55;22.98;;;12.20;70.90;;;;;;6166057;23;20091;-84
2022/12/01 03:55:18;;;;;;;37.90;22.23;;;12.30;71.20;;;;;;6166004;23;20024;-79
2022/12/01 03:57:44;;;;;;;38.00;21.75;;;12.30;71.10;;;;;;6165766;23;20080;-73
2022/12/01 04:00:10;;;;;;;36.25;22.30;;;12.40;71.00;;;;;;6165640;23;20410;-74
2022/12/01 04:02:36;;;;;;;34.08;21.98;;;12.40;71.10;;;;;;6166123;23;20386;-76
2022/12/01 04:05:04;;;;;;;36.92;21.80;;;12.50;71.10;;;;;;6165555;23;20045;-76
2022/12/01 04:07:30;;;;;;;38.42;22.60;;;12.50;71.20;;;;;;6162803;23;20075;-81
2022/12/01 04:09:56;;;;;;;39.25;23.58;;;12.50;71.10;;;;;;6159536;23;20013;-77
2022/12/01 04:12:32;;;;;;;33.90;21.27;;;12.60;71.10;;;;;;6157748;23;20025;-79
2022/12/01 04:15:00;;;;;;;38.20;21.52;;;12.60;71.00;;;;;;6158815;23;20024;-76
2022/12/01 04:17:26;;;;;;;36.58;22.45;;;12.60;70.90;;;;;;6159119;23;20097;-77
2022/12/01 04:19:52;;;;;;;40.63;21.60;;;12.60;70.90;;;;;;6159015;23;20029;-78
2022/12/01 04:22:18;;;;;;;42.25;23.17;;;12.60;70.90;;;;;;6158982;23;20017;-75
2022/12/01 04:24:44;;;;;;;35.88;21.30;;;12.60;70.90;;;;;;6157324;23;20025;-77
2022/12/01 04:27:10;;;;;;;41.42;23.17;;;12.70;70.80;;;;;;6157494;23;20025;-76
2022/12/01 04:29:36;;;;;;;39.58;24.00;;;12.70;71.20;;;;;;6133282;23;20296;-79
2022/12/01 04:32:01;;;;;;;49.03;24.30;;;12.70;70.30;;;;;;6158850;23;20021;-78
2022/12/01 04:34:27;;;;;;;39.28;23.95;;;12.80;70.10;;;;;;6158701;23;20029;-77
2022/12/01 04:36:53;;;;;;;40.05;23.80;;;12.80;69.80;;;;;;6157159;23;20021;-75
2022/12/01 04:39:19;;;;;;;39.42;23.95;;;12.80;69.60;;;;;;6158204;23;20048;-76
2022/12/01 04:41:46;;;;;;;39.30;25.50;;;12.80;69.50;;;;;;6157529;23;20433;-78
2022/12/01 04:44:12;;;;;;;41.20;25.65;;;12.80;69.30;;;;;;6158710;23;20025;-76
2022/12/01 04:46:38;;;;;;;39.88;24.98;;;12.80;69.10;;;;;;6158194;23;20021;-74
2022/12/01 04:49:12;;;;;;;41.58;25.73;;;12.80;68.90;;;;;;6158748;23;20330;-77
2022/12/01 04:51:41;;;;;;;38.90;25.88;;;12.80;68.80;;;;;;6157753;23;20111;-79
2022/12/01 04:54:07;;;;;;;41.35;26.27;;;12.90;68.80;;;;;;6157538;23;20017;-79
2022/12/01 04:56:41;;;;;;;40.75;25.17;;;12.90;68.60;;;;;;6158497;23;20017;-79
2022/12/01 04:59:08;;;;;;;38.72;25.27;;;12.90;68.40;;;;;;6133022;23;20036;-77
2022/12/01 05:01:33;;;;;;;45.40;26.50;;;12.90;68.30;;;;;;6158675;23;20044;-75
2022/12/01 05:03:59;;;;;;;44.72;28.13;;;12.90;68.20;;;;;;6157303;23;20092;-76
2022/12/01 05:06:28;;;;;;;44.80;26.55;;;12.90;68.10;;;;;;6158348;23;20082;-79
2022/12/01 05:09:00;;;;;;;51.55;28.25;;;12.90;67.90;;;;;;6158722;23;20033;-77
2022/12/01 05:11:27;;;;;;;47.00;26.65;;;12.90;67.70;;;;;;6158827;23;20319;-78
2022/12/01 05:13:53;;;;;;;42.33;26.88;;;12.90;67.70;;;;;;6158691;23;20017;-76
2022/12/01 05:16:21;;;;;;;54.45;29.45;;;12.90;67.60;;;;;;6158572;23;20108;-80
2022/12/01 05:18:48;;;;;;;46.35;26.65;;;12.90;67.90;;;;;;6156947;23;20053;-78
2022/12/01 05:21:14;;;;;;;47.97;25.75;;;12.90;68.60;;;;;;6157560;23;20087;-74
2022/12/01 05:23:40;;;;;;;45.47;26.30;;;12.90;69.60;;;;;;6158531;23;20017;-76
2022/12/01 05:26:07;;;;;;;49.47;25.48;;;12.90;70.60;;;;;;6158635;23;20088;-77
2022/12/01 05:28:34;;;;;;;48.53;24.95;;;13.10;71.00;;;;;;6158239;23;20014;-77
2022/12/01 05:31:33;;;;;;;43.25;23.50;;;13.30;70.80;;;;;;6158366;23;20017;-85
2022/12/01 05:34:22;;;;;;;51.67;24.10;;;13.40;71.30;;;;;;6127187;23;20014;-84
2022/12/01 05:36:50;;;;;;;49.80;20.92;;;13.70;71.30;;;;;;6132201;23;20018;-86
2022/12/01 05:39:19;;;;;;;47.88;23.75;;;13.80;71.00;;;;;;6156191;23;20028;-84
2022/12/01 05:41:45;;;;;;;51.72;23.00;;;13.90;70.90;;;;;;6156887;23;20009;-81
2022/12/01 05:44:10;;;;;;;43.63;22.63;;;14.00;70.70;;;;;;6157801;23;20084;-78
2022/12/01 05:46:36;;;;;;;45.25;21.90;;;14.20;70.90;;;;;;6156575;23;20013;-72
2022/12/01 05:49:02;;;;;;;43.17;20.88;;;14.20;70.80;;;;;;6158180;23;20082;-81
2022/12/01 05:51:28;;;;;;;46.30;21.85;;;14.30;70.80;;;;;;6156777;23;20052;-79
2022/12/01 05:53:54;;;;;;;43.67;20.88;;;14.40;70.80;;;;;;6157133;23;20021;-80
2022/12/01 05:56:20;;;;;;;41.92;19.88;;;14.50;70.90;;;;;;6156422;23;20024;-76
2022/12/01 05:58:46;;;;;;;44.92;19.00;;;14.60;70.90;;;;;;6158502;23;20359;-81
2022/12/01 06:01:12;;;;;;;37.85;17.90;;;14.70;70.80;;;;;;6158242;23;20020;-81
2022/12/01 06:03:37;;;;;;;37.53;18.27;;;14.80;70.80;;;;;;6157096;23;20422;-81
2022/12/01 06:06:03;;;;;;;55.80;18.50;;;14.90;70.70;;;;;;6158270;23;20018;-80
2022/12/01 06:08:29;;;;;;;38.58;18.70;;;14.90;70.60;;;;;;6157158;23;20021;-82
2022/12/01 06:10:54;;;;;;;39.25;16.73;;;15.00;70.80;;;;;;6132218;23;20017;-80
2022/12/01 06:13:20;;;;;;;40.95;17.25;;;15.00;70.90;;;;;;6157090;23;20363;-80
2022/12/01 06:16:02;;;;;;;45.85;18.20;;;15.00;71.20;;;;;;6158135;23;20045;-80
2022/12/01 06:18:30;;;;;;;42.67;17.65;;;15.10;71.40;;;;;;6132767;23;20013;-82
2022/12/01 06:20:56;;;;;;;37.53;15.98;;;15.20;71.10;;;;;;6157054;23;20085;-80
2022/12/01 06:23:22;;;;;;;31.88;16.23;;;15.30;71.00;;;;;;6156550;23;20056;-78
2022/12/01 06:25:51;;;;;;;34.20;15.68;;;15.40;70.80;;;;;;6156494;23;20025;-84
2022/12/01 06:33:02;;;;;;;53.50;17.90;;;15.40;70.50;;;;;;6157396;23;20467;-77
2022/12/01 06:36:17;;;;;;;41.72;15.75;;;15.40;70.80;;;;;;6154447;23;20092;-78
2022/12/01 06:38:55;;;;;;;40.40;15.55;;;15.50;71.20;;;;;;6116296;23;20045;-77
2022/12/01 06:45:49;;;;;;;45.58;15.85;;;15.60;71.40;;;;;;6125989;23;20022;-77
2022/12/01 07:00:29;;;;;;;39.70;14.60;;;15.60;71.60;;;;;;6157112;23;20012;-77
2022/12/01 07:02:55;;;;;;;40.72;14.65;;;15.60;71.60;;;;;;6157546;23;20028;-75
2022/12/01 07:05:20;;;;;;;69.85;18.60;;;15.60;71.70;;;;;;6131665;23;20021;-74
2022/12/01 07:11:16;;;;;;;43.72;22.33;;;15.50;67.70;;;;;;6055979;23;20018;-77
2022/12/01 07:14:06;;;;;;;42.45;23.55;;;15.40;66.00;;;;;;6133844;23;20028;-77
2022/12/01 07:17:12;;;;;;;60.47;22.55;;;15.30;64.80;;;;;;6105960;23;20076;-78
2022/12/01 07:24:32;;;;;;;46.33;21.02;;;15.10;65.30;;;;;;6157382;23;20028;-78
2022/12/01 07:27:01;;;;;;;51.47;23.00;;;15.00;66.00;;;;;;6157341;23;20049;-80
2022/12/01 07:30:22;;;;;;;45.83;20.95;;;14.90;66.80;;;;;;6070354;23;20101;-77
2022/12/01 07:32:54;;;;;;;39.50;20.08;;;14.80;66.90;;;;;;6107638;23;20013;-77
2022/12/01 07:35:20;;;;;;;44.13;19.98;;;14.80;67.60;;;;;;6131505;23;20057;-77
2022/12/01 07:37:45;;;;;;;40.83;18.95;;;14.80;67.70;;;;;;6131821;23;20014;-75
2022/12/01 07:40:11;;;;;;;40.05;20.55;;;14.80;67.80;;;;;;6107275;23;20017;-78
2022/12/01 07:42:40;;;;;;;42.70;18.27;;;14.70;68.00;;;;;;6132689;23;20080;-76
2022/12/01 07:45:58;;;;;;;46.30;18.73;;;14.70;68.50;;;;;;6133711;23;20049;-76
2022/12/01 07:52:38;;;;;;;29.63;18.83;;;14.60;68.40;;;;;;6065204;23;20118;-76
2022/12/01 07:56:01;;;;;;;39.75;21.02;;;14.60;67.60;;;;;;6156843;23;20057;-77
2022/12/01 07:58:47;;;;;;;37.90;21.35;;;14.60;66.70;;;;;;6009925;23;20084;-76
2022/12/01 08:01:42;;;;;;;30.35;20.33;;;14.60;65.20;;;;;;5965661;23;20020;-77
2022/12/01 08:04:51;;;;;;;;;;;;;;;;;;;;;
2022/12/01 08:07:34;;;;;;;30.02;19.80;;;14.40;64.20;;;;;;6127218;23;20021;-76
2022/12/01 08:10:15;;;;;;;27.35;18.88;;;14.30;64.30;;;;;;6132249;23;20084;-77
2022/12/01 08:12:56;;;;;;;28.35;17.45;;;14.30;64.40;;;;;;6158905;23;20019;-76
2022/12/01 08:15:42;;;;;;;26.55;17.63;;;14.30;64.20;;;;;;6142227;23;20351;-77
2022/12/01 08:18:12;;;;;;;26.02;17.88;;;14.20;64.40;;;;;;6133805;23;20021;-77
2022/12/01 08:21:06;;;;;;;26.77;17.17;;;14.20;64.80;;;;;;6158280;23;20434;-76
2022/12/01 08:23:48;;;;;;;26.58;17.42;;;14.10;64.90;;;;;;6151881;23;20013;-76
2022/12/01 08:26:37;;;;;;;27.98;17.83;;;14.10;65.10;;;;;;6134538;23;20415;-77
2022/12/01 08:29:18;;;;;;;25.50;16.50;;;14.10;65.20;;;;;;6158566;23;20017;-76
2022/12/01 08:32:10;;;;;;;26.35;17.55;;;14.10;65.70;;;;;;6157703;23;20036;-76
2022/12/01 08:35:05;;;;;;;25.15;17.48;;;14.00;66.40;;;;;;6133370;23;20014;-76
2022/12/01 08:37:40;;;;;;;25.27;15.85;;;14.00;66.00;;;;;;6134275;23;20441;-76
2022/12/01 08:40:26;;;;;;;23.75;15.90;;;14.00;66.40;;;;;;6157224;23;20017;-76
2022/12/01 08:43:08;;;;;;;25.10;17.23;;;14.00;66.40;;;;;;6132704;23;20021;-76
2022/12/01 08:46:12;;;;;;;23.48;15.50;;;14.00;66.50;;;;;;6125791;23;20017;-77
2022/12/01 08:48:59;;;;;;;25.15;16.08;;;14.00;66.80;;;;;;6044307;23;20018;-78
2022/12/01 08:51:58;;;;;;;25.02;16.00;;;14.00;66.90;;;;;;6045599;23;20010;-76
2022/12/01 08:54:29;;;;;;;26.58;16.63;;;14.10;65.90;;;;;;6068046;23;20014;-76
2022/12/01 08:57:02;;;;;;;22.42;14.77;;;13.90;65.40;;;;;;6044978;23;20135;-77
2022/12/01 08:59:31;;;;;;;24.20;15.02;;;13.80;65.90;;;;;;6104073;23;20058;-77
2022/12/01 09:02:51;;;;;;;25.65;15.48;;;13.80;66.40;;;;;;6105925;23;20143;-77
2022/12/01 09:05:17;;;;;;;21.08;13.90;;;13.70;66.60;;;;;;6126966;23;20013;-76
2022/12/01 09:08:30;;;;;;;22.08;13.25;;;13.60;67.10;;;;;;6095242;23;20014;-77
2022/12/01 09:14:16;;;;;;;22.52;13.77;;;13.60;67.80;;;;;;6158697;23;19913;-77
2022/12/01 09:16:44;;;;;;;20.40;13.63;;;13.70;68.00;;;;;;6157122;23;20430;-77
2022/12/01 09:19:10;;;;;;;30.08;14.85;;;13.80;68.10;;;;;;6157353;23;20136;-74
2022/12/01 09:21:36;;;;;;;24.90;14.73;;;13.80;68.30;;;;;;6157172;23;20041;-76
2022/12/01 09:24:04;;;;;;;30.38;16.48;;;13.90;68.70;;;;;;6133152;23;20426;-78
2022/12/01 09:26:30;;;;;;;25.33;15.30;;;13.90;69.10;;;;;;6157435;23;20025;-78
2022/12/01 09:29:08;;;;;;;25.50;15.13;;;14.00;69.40;;;;;;6158114;23;20085;-78
2022/12/01 09:31:35;;;;;;;27.65;15.35;;;14.00;69.70;;;;;;6158147;23;20024;-77
2022/12/01 09:34:06;;;;;;;28.67;15.15;;;14.00;70.40;;;;;;6157522;23;20017;-78
2022/12/01 09:36:33;;;;;;;21.10;13.23;;;14.20;70.60;;;;;;6156980;23;20053;-78
2022/12/01 09:38:59;;;;;;;29.10;14.15;;;14.40;70.50;;;;;;6157250;23;20017;-78
2022/12/01 09:41:54;;;;;;;24.95;12.27;;;14.60;70.20;;;;;;6158298;23;20020;-78
2022/12/01 09:44:29;;;;;;;26.48;12.80;;;14.80;69.90;;;;;;6158371;23;20014;-79
2022/12/01 09:47:04;;;;;;;19.30;11.65;;;15.00;69.40;;;;;;6158057;23;20018;-77
2022/12/01 09:49:55;;;;;;;17.80;11.05;;;15.20;69.10;;;;;;6132391;23;20013;-77
2022/12/01 09:52:23;;;;;;;17.65;10.95;;;15.30;68.70;;;;;;6158265;23;20018;-76
2022/12/01 09:54:49;;;;;;;16.30;10.20;;;15.30;68.50;;;;;;6158084;23;20079;-78
2022/12/01 09:57:37;;;;;;;15.70;9.82;;;15.50;68.50;;;;;;6158647;23;20362;-77
2022/12/01 10:00:17;;;;;;;16.05;9.38;;;15.50;68.20;;;;;;6156506;23;20295;-77
2022/12/01 10:03:04;;;;;;;15.60;8.95;;;15.60;68.20;;;;;;6157285;23;20013;-79
2022/12/01 10:05:39;;;;;;;22.55;9.70;;;15.60;68.20;;;;;;6157283;23;20414;-78
2022/12/01 10:08:11;;;;;;;24.88;9.75;;;15.60;68.20;;;;;;6158034;23;20017;-77
2022/12/01 10:10:41;;;;;;;19.65;8.90;;;15.60;68.20;;;;;;6107696;23;20021;-76
2022/12/01 10:13:20;;;;;;;19.48;9.27;;;15.60;67.70;;;;;;6108110;23;20419;-75
2022/12/01 10:16:06;;;;;;;24.42;9.30;;;15.60;67.60;;;;;;6157677;23;20411;-73
2022/12/01 10:18:57;;;;;;;21.52;7.97;;;15.50;67.60;;;;;;6132414;23;20028;-77
2022/12/01 10:21:23;;;;;;;15.30;8.73;;;15.40;67.70;;;;;;6132016;23;20356;-74
2022/12/01 10:24:23;;;;;;;23.55;8.38;;;15.40;67.90;;;;;;6157828;23;20021;-75
2022/12/01 10:27:11;;;;;;;16.50;7.57;;;15.30;67.90;;;;;;6079825;23;20096;-75
2022/12/01 10:29:47;;;;;;;16.48;8.60;;;15.30;68.10;;;;;;6157767;23;20147;-74
2022/12/01 10:32:28;;;;;;;14.20;7.78;;;15.20;68.10;;;;;;6157597;23;20149;-76
2022/12/01 10:34:54;;;;;;;20.38;8.10;;;15.20;68.20;;;;;;6158466;23;20013;-75
2022/12/01 10:37:23;;;;;;;12.38;7.72;;;15.10;68.30;;;;;;6156363;23;20029;-76
2022/12/01 10:39:51;;;;;;;16.55;7.75;;;15.00;68.30;;;;;;6157728;23;20025;-74
2022/12/01 10:42:25;;;;;;;13.40;8.32;;;15.00;68.40;;;;;;6158122;23;20029;-75
2022/12/01 10:44:53;;;;;;;15.75;7.75;;;15.00;68.50;;;;;;6157759;23;20025;-78
2022/12/01 10:47:25;;;;;;;15.57;7.72;;;14.90;68.60;;;;;;6157544;23;20358;-75
2022/12/01 10:49:51;;;;;;;14.88;7.13;;;14.90;68.60;;;;;;6157718;23;20022;-74
2022/12/01 10:52:34;;;;;;;15.18;7.47;;;14.80;68.70;;;;;;6157921;23;20048;-76
2022/12/01 10:55:01;;;;;;;14.50;7.47;;;14.80;68.80;;;;;;6156379;23;20446;-72
2022/12/01 10:57:29;;;;;;;14.18;6.93;;;14.70;68.80;;;;;;6156412;23;20041;-75
2022/12/01 11:00:00;;;;;;;17.33;7.60;;;14.70;69.00;;;;;;6157127;23;20010;-73
2022/12/01 11:02:29;;;;;;;15.00;6.63;;;14.70;69.10;;;;;;6157705;23;20500;-73
2022/12/01 11:07:44;;;;;;;14.55;7.03;;;14.60;69.10;;;;;;5133199;27;20378;-77
2022/12/01 11:10:30;;;;;;;19.52;7.30;;;14.60;69.80;;;;;;5110121;28;20062;-76
2022/12/01 11:12:57;;;;;;;16.00;6.80;;;14.60;70.00;;;;;;5093989;28;20089;-78
2022/12/01 11:15:28;;;;;;;12.25;7.07;;;14.60;70.10;;;;;;5112794;28;20040;-75
2022/12/01 11:18:02;;;;;;;15.07;6.93;;;14.60;70.00;;;;;;5094166;28;20043;-77
2022/12/01 11:20:34;;;;;;;10.98;6.63;;;14.50;69.70;;;;;;5113007;28;20043;-76
2022/12/01 11:23:19;;;;;;;14.65;6.55;;;14.50;69.70;;;;;;5095270;28;20529;-74
2022/12/01 11:26:00;;;;;;;11.95;6.30;;;14.50;69.70;;;;;;5111517;28;20047;-77
2022/12/01 11:28:26;;;;;;;15.48;6.65;;;14.50;69.70;;;;;;5078175;28;20048;-75
2022/12/01 11:30:59;;;;;;;9.82;5.90;;;14.40;69.70;;;;;;5092420;28;20052;-75
2022/12/01 11:33:27;;;;;;;8.27;6.10;;;14.40;69.70;;;;;;5092495;28;20190;-76
2022/12/01 11:35:53;;;;;;;11.98;7.30;;;14.40;69.70;;;;;;5092604;28;20052;-77
2022/12/01 11:38:22;;;;;;;7.13;5.43;;;14.40;69.70;;;;;;5092749;28;20059;-75
2022/12/01 11:40:54;;;;;;;10.85;6.53;;;14.40;69.70;;;;;;5092092;28;20048;-77
2022/12/01 11:43:30;;;;;;;12.07;6.35;;;14.40;69.80;;;;;;5092051;28;20127;-77
2022/12/01 11:46:00;;;;;;;12.88;6.63;;;14.30;69.80;;;;;;5092203;28;20055;-76
2022/12/01 11:48:28;;;;;;;10.85;5.80;;;14.30;69.80;;;;;;5092702;28;20420;-74
2022/12/01 11:51:05;;;;;;;10.57;5.47;;;14.20;69.80;;;;;;5091772;28;20059;-78
2022/12/01 11:53:38;;;;;;;9.30;5.85;;;14.30;70.40;;;;;;5092044;28;20363;-74
2022/12/01 11:56:24;;;;;;;8.82;5.53;;;14.20;69.90;;;;;;5091773;28;20048;-78
2022/12/01 11:58:57;;;;;;;10.48;5.75;;;14.20;69.80;;;;;;5092540;28;20055;-76
2022/12/01 12:01:57;;;;;;;8.57;5.15;;;14.20;69.90;;;;;;5077616;28;20048;-75
2022/12/01 12:04:43;;;;;;;7.50;5.88;;;14.20;69.90;;;;;;5112182;28;20370;-74
2022/12/01 12:07:33;;;;;;;8.70;5.70;;;14.20;70.00;;;;;;5112781;28;20490;-73
2022/12/01 12:10:22;;;;;;;9.35;5.60;;;14.20;70.60;;;;;;5112151;28;20455;-77
2022/12/01 12:13:15;;;;;;;7.80;5.43;;;14.20;70.00;;;;;;5087055;28;20127;-74
2022/12/01 12:15:57;;;;;;;6.82;5.22;;;14.10;70.00;;;;;;5074003;28;20113;-74
2022/12/01 12:18:41;;;;;;;8.77;6.43;;;14.10;70.00;;;;;;5080709;28;20084;-76
2022/12/01 12:21:24;;;;;;;7.13;5.57;;;14.10;70.00;;;;;;5077777;28;20055;-75
2022/12/01 12:24:34;;;;;;;6.90;4.70;;;14.10;70.00;;;;;;5078108;28;20048;-75
2022/12/01 12:27:55;;;;;;;8.88;5.35;;;14.10;69.90;;;;;;5078210;28;20306;-75
2022/12/01 12:30:28;;;;;;;7.38;5.38;;;14.10;70.00;;;;;;5043380;28;20135;-73
2022/12/01 12:32:54;;;;;;;10.18;4.30;;;14.10;70.10;;;;;;5077467;28;20131;-75
2022/12/01 12:35:23;;;;;;;7.38;4.72;;;14.10;70.10;;;;;;5077733;28;20087;-77
2022/12/01 12:38:25;;;;;;;7.47;4.72;;;14.10;70.20;;;;;;5077670;28;20040;-78
2022/12/01 12:41:16;;;;;;;7.78;5.20;;;14.10;70.00;;;;;;5065777;28;20050;-77
2022/12/01 12:44:32;;;;;;;6.63;4.43;;;14.10;70.30;;;;;;5098133;28;20089;-75
2022/12/01 12:47:34;;;;;;;6.05;4.90;;;14.10;70.10;;;;;;5023386;28;20064;-75
2022/12/01 12:50:36;;;;;;;8.43;4.93;;;14.00;70.10;;;;;;5080674;28;20040;-76
2022/12/01 12:53:12;;;;;;;8.50;5.50;;;14.00;70.10;;;;;;5067468;28;20131;-77
2022/12/01 12:55:44;;;;;;;6.10;4.40;;;14.00;70.20;;;;;;5077681;28;20105;-76
2022/12/01 12:58:17;;;;;;;6.47;5.47;;;14.00;70.30;;;;;;5059825;28;20056;-75
2022/12/01 13:00:49;;;;;;;6.05;4.78;;;14.00;70.40;;;;;;5076997;28;20106;-75
2022/12/01 13:03:30;;;;;;;5.95;4.43;;;14.00;70.40;;;;;;5077120;28;20055;-76
2022/12/01 13:06:03;;;;;;;6.40;4.57;;;14.00;70.50;;;;;;5059205;28;20060;-74
2022/12/01 13:08:42;;;;;;;5.82;4.38;;;13.90;70.50;;;;;;5076867;28;20474;-76
2022/12/01 13:11:35;;;;;;;6.78;4.65;;;13.90;70.50;;;;;;5059042;28;20356;-76
2022/12/01 13:14:10;;;;;;;6.63;4.85;;;13.90;70.40;;;;;;5076841;28;20124;-77
2022/12/01 13:16:40;;;;;;;6.53;4.95;;;13.90;70.60;;;;;;5077216;28;20413;-74
2022/12/01 13:19:37;;;;;;;6.05;4.38;;;13.90;70.60;;;;;;5077097;28;20120;-75
2022/12/01 13:22:05;;;;;;;5.85;4.43;;;13.90;70.40;;;;;;5063648;28;20117;-77
2022/12/01 13:24:31;;;;;;;5.43;4.20;;;13.90;70.70;;;;;;5077249;28;20048;-75
2022/12/01 13:27:09;;;;;;;5.57;4.43;;;13.90;70.70;;;;;;5076427;28;20051;-76
2022/12/01 13:29:37;;;;;;;9.82;5.10;;;13.90;70.80;;;;;;5058103;28;20055;-76
2022/12/01 13:32:05;;;;;;;10.63;5.72;;;13.90;70.70;;;;;;5077657;28;20052;-77
2022/12/01 13:34:36;;;;;;;11.57;6.60;;;14.00;69.80;;;;;;5058435;28;20049;-71
2022/12/01 13:37:33;;;;;;;15.77;7.20;;;14.00;68.50;;;;;;5058595;28;20059;-81
2022/12/01 13:40:29;;;;;;;15.65;6.60;;;14.00;67.70;;;;;;5075870;28;20463;-77
2022/12/01 13:43:12;;;;;;;16.40;7.95;;;14.00;67.50;;;;;;5090435;28;20047;-78
2022/12/01 13:45:39;;;;;;;8.82;5.85;;;14.00;67.00;;;;;;5096349;28;20032;-76
2022/12/01 13:48:24;;;;;;;10.57;6.03;;;13.90;67.00;;;;;;5096438;28;20055;-77
2022/12/01 13:50:59;;;;;;;10.90;5.53;;;13.90;67.60;;;;;;5096275;28;20094;-73
2022/12/01 13:53:36;;;;;;;13.15;5.38;;;13.80;67.80;;;;;;5075635;28;20562;-75
2022/12/01 13:56:01;;;;;;;10.50;5.95;;;13.80;67.40;;;;;;5076004;28;20044;-78
2022/12/01 13:58:33;;;;;;;14.25;5.85;;;13.90;66.80;;;;;;5075751;28;20048;-77
2022/12/01 14:01:20;;;;;;;13.88;5.10;;;13.80;66.50;;;;;;5076769;28;20339;-73
2022/12/01 14:03:53;;;;;;;15.27;4.50;;;13.90;66.30;;;;;;5075722;28;20389;-76
2022/12/01 14:06:37;;;;;;;9.27;3.95;;;13.90;66.70;;;;;;5075367;28;20048;-76
2022/12/01 14:09:25;;;;;;;13.65;4.25;;;14.00;67.60;;;;;;5075651;28;20044;-77
2022/12/01 14:11:57;;;;;;;14.35;3.33;;;14.30;67.30;;;;;;5081939;28;20344;-78
2022/12/01 14:14:25;;;;;;;10.63;3.75;;;14.40;67.30;;;;;;5095894;28;20048;-78
2022/12/01 14:16:54;;;;;;;10.07;3.33;;;14.60;67.20;;;;;;5081487;28;20358;-75
2022/12/01 14:19:32;;;;;;;10.63;3.15;;;14.70;67.20;;;;;;5075387;28;20040;-75
2022/12/01 14:22:00;;;;;;;9.32;2.33;;;14.80;67.50;;;;;;5065321;28;20052;-76
2022/12/01 14:24:50;;;;;;;11.43;2.55;;;14.80;67.50;;;;;;5096062;28;20425;-76
2022/12/01 14:27:38;;;;;;;8.70;2.80;;;14.90;67.70;;;;;;5095302;28;20125;-80
2022/12/01 14:30:45;;;;;;;15.85;2.90;;;14.90;67.70;;;;;;5077817;28;20113;-78
2022/12/01 14:33:49;;;;;;;28.52;4.00;;;14.90;67.70;;;;;;5081314;28;20540;-74
2022/12/01 14:36:43;;;;;;;20.63;4.78;;;14.90;68.00;;;;;;5074952;28;20044;-77
2022/12/01 14:39:14;;;;;;;28.40;4.38;;;14.90;68.10;;;;;;5075253;28;20048;-77
2022/12/01 14:42:08;;;;;;;21.05;4.93;;;14.90;68.20;;;;;;5074533;28;20144;-78
2022/12/01 14:44:43;;;;;;;18.83;3.88;;;14.80;68.40;;;;;;5061084;28;20102;-76
2022/12/01 14:47:09;;;;;;;24.38;4.07;;;14.90;68.50;;;;;;5061029;28;20128;-77
2022/12/01 14:50:08;;;;;;;15.75;3.65;;;14.80;69.20;;;;;;5095388;28;20048;-79
2022/12/01 14:52:48;;;;;;;10.10;3.05;;;14.80;68.80;;;;;;5077580;28;20082;-79
2022/12/01 14:55:27;;;;;;;19.25;3.60;;;14.80;69.10;;;;;;5095385;28;20036;-78
2022/12/01 14:58:04;;;;;;;18.27;3.85;;;14.80;69.20;;;;;;5082402;28;20413;-73
2022/12/01 15:00:36;;;;;;;22.58;3.40;;;14.80;69.20;;;;;;5074634;28;20047;-74
2022/12/01 15:03:12;;;;;;;24.38;4.10;;;14.80;69.20;;;;;;5074994;28;20041;-73
2022/12/01 15:05:42;;;;;;;14.38;5.47;;;14.80;68.70;;;;;;5074736;28;20053;-76
2022/12/01 15:08:21;;;;;;;11.43;6.13;;;14.80;67.60;;;;;;5074947;28;20052;-74
2022/12/01 15:10:53;;;;;;;15.80;6.38;;;14.80;66.10;;;;;;5074748;28;20087;-75
2022/12/01 15:13:29;;;;;;;15.18;6.78;;;14.80;64.90;;;;;;5057205;28;20044;-74
2022/12/01 15:16:12;;;;;;;13.80;6.20;;;14.70;64.50;;;;;;5077547;28;20101;-79
2022/12/01 15:18:38;;;;;;;12.75;7.22;;;14.60;64.50;;;;;;5091104;28;20048;-75
2022/12/01 15:21:20;;;;;;;16.55;7.22;;;14.60;64.30;;;;;;5074246;28;20051;-76
2022/12/01 15:24:04;;;;;;;24.38;7.22;;;14.50;64.30;;;;;;5074661;28;20106;-78
2022/12/01 15:26:34;;;;;;;20.35;6.60;;;14.50;64.40;;;;;;5057092;28;20119;-77
2022/12/01 15:29:13;;;;;;;19.67;6.25;;;14.50;64.70;;;;;;5074918;28;20044;-79
2022/12/01 15:31:39;;;;;;;16.02;5.88;;;14.50;64.80;;;;;;5075037;28;20118;-73
2022/12/01 15:34:13;;;;;;;14.63;6.47;;;14.60;65.20;;;;;;5074980;28;20375;-77
2022/12/01 15:36:39;;;;;;;15.10;5.07;;;14.60;64.60;;;;;;5040772;28;20066;-76
2022/12/01 15:39:10;;;;;;;18.17;5.57;;;14.70;64.50;;;;;;5074513;28;20052;-77
2022/12/01 15:41:39;;;;;;;21.35;5.93;;;14.80;64.70;;;;;;5080612;28;20354;-76
2022/12/01 15:44:39;;;;;;;22.40;4.97;;;15.00;64.80;;;;;;5094907;28;20043;-75
2022/12/01 15:47:37;;;;;;;20.42;4.78;;;15.10;64.90;;;;;;5102942;28;20048;-75
2022/12/01 15:50:04;;;;;;;25.52;4.93;;;15.30;65.00;;;;;;5115108;28;20052;-75
2022/12/01 15:52:31;;;;;;;20.30;5.43;;;15.40;64.90;;;;;;5115705;28;20043;-79
2022/12/01 15:55:01;;;;;;;22.13;5.38;;;15.50;64.60;;;;;;5118803;28;20039;-77
2022/12/01 15:57:27;;;;;;;20.80;4.70;;;15.50;64.60;;;;;;5109678;28;20104;-78
2022/12/01 15:59:55;;;;;;;24.48;5.40;;;15.50;64.80;;;;;;5098413;28;20044;-76
2022/12/01 16:02:30;;;;;;;19.73;5.22;;;15.50;65.10;;;;;;5080869;28;20055;-77
2022/12/01 16:05:32;;;;;;;25.17;5.60;;;15.50;65.50;;;;;;5081286;28;20379;-82
2022/12/01 16:08:13;;;;;;;26.10;4.88;;;15.50;66.00;;;;;;5081991;28;20044;-77
2022/12/01 16:10:38;;;;;;;27.02;6.72;;;15.50;66.40;;;;;;5076796;28;20475;-76
2022/12/01 16:13:35;;;;;;;26.38;6.03;;;15.50;66.80;;;;;;5077931;28;20062;-76
2022/12/01 16:16:18;;;;;;;21.40;6.05;;;15.50;67.80;;;;;;5077740;28;20094;-77
2022/12/01 16:18:54;;;;;;;19.58;5.00;;;15.60;68.30;;;;;;5077863;28;20127;-76
2022/12/01 16:21:21;;;;;;;25.65;4.38;;;15.50;68.40;;;;;;5077261;28;20151;-77
2022/12/01 16:23:47;;;;;;;21.42;4.43;;;15.50;68.70;;;;;;5078475;28;20383;-76
2022/12/01 16:26:13;;;;;;;20.23;4.85;;;15.50;68.80;;;;;;5078114;28;20048;-78
2022/12/01 16:28:39;;;;;;;17.80;4.18;;;15.40;69.00;;;;;;5077445;28;20419;-76
2022/12/01 16:31:18;;;;;;;18.05;3.95;;;15.40;69.40;;;;;;5077498;28;20045;-76
2022/12/01 16:33:58;;;;;;;17.10;5.55;;;15.30;69.70;;;;;;5077512;28;20340;-75
2022/12/01 16:36:25;;;;;;;15.77;4.47;;;15.30;69.90;;;;;;5077655;28;20364;-78
2022/12/01 16:38:51;;;;;;;16.42;4.28;;;15.30;70.10;;;;;;5077363;28;20044;-75
2022/12/01 16:41:25;;;;;;;19.65;5.45;;;15.20;70.50;;;;;;5077370;28;20387;-79
2022/12/01 16:43:51;;;;;;;21.65;6.03;;;15.20;70.40;;;;;;5077415;28;20447;-80
2022/12/01 16:46:17;;;;;;;21.25;6.05;;;15.20;70.60;;;;;;5077382;28;20140;-77
2022/12/01 16:48:42;;;;;;;18.65;5.28;;;15.10;70.70;;;;;;5077515;28;20458;-77
2022/12/01 16:51:12;;;;;;;21.98;5.60;;;15.10;70.40;;;;;;5076988;28;20114;-78
2022/12/01 16:53:38;;;;;;;23.33;6.93;;;15.10;70.40;;;;;;5059814;28;20040;-78
2022/12/01 16:56:04;;;;;;;18.33;5.32;;;15.00;69.30;;;;;;5077327;28;20413;-77
2022/12/01 16:58:30;;;;;;;21.08;5.75;;;15.00;70.10;;;;;;5077209;28;20040;-77
2022/12/01 17:00:56;;;;;;;19.33;5.90;;;15.00;70.20;;;;;;5077260;28;20336;-77
2022/12/01 17:03:24;;;;;;;31.80;8.25;;;14.90;70.20;;;;;;5059499;28;20455;-78
2022/12/01 17:05:51;;;;;;;23.90;5.68;;;14.90;69.60;;;;;;5076969;28;20379;-77
2022/12/01 17:09:42;;;;;;;27.75;5.65;;;14.90;70.20;;;;;;5076528;28;20471;-78
2022/12/01 17:12:08;;;;;;;41.13;6.78;;;14.90;70.40;;;;;;5076797;28;20049;-80
2022/12/01 17:14:44;;;;;;;25.27;6.32;;;14.90;70.70;;;;;;5060068;28;20474;-80
2022/12/01 17:17:10;;;;;;;20.70;6.00;;;14.90;70.90;;;;;;5076068;28;20040;-80
2022/12/01 17:19:35;;;;;;;30.75;5.85;;;14.80;70.90;;;;;;5059528;28;20485;-80
2022/12/01 17:22:01;;;;;;;27.52;7.15;;;14.80;70.80;;;;;;5076486;28;20037;-80
2022/12/01 17:24:27;;;;;;;24.75;5.70;;;14.80;70.70;;;;;;5076349;28;20131;-80
2022/12/01 17:26:52;;;;;;;27.55;7.38;;;14.80;70.70;;;;;;5058875;28;20056;-80
2022/12/01 17:29:18;;;;;;;19.15;6.13;;;14.80;70.70;;;;;;5076488;28;20048;-79
2022/12/01 17:31:44;;;;;;;20.48;6.40;;;14.70;70.50;;;;;;5058663;28;20086;-81
2022/12/01 17:34:09;;;;;;;25.50;6.78;;;14.70;70.50;;;;;;5059178;28;20045;-80
2022/12/01 17:36:35;;;;;;;18.77;6.35;;;14.60;70.40;;;;;;5076674;28;20487;-80
2022/12/01 17:39:01;;;;;;;19.80;6.72;;;14.60;70.40;;;;;;5076252;28;20052;-81
2022/12/01 17:41:31;;;;;;;21.20;7.03;;;14.60;70.40;;;;;;5076438;28;20494;-79
2022/12/01 17:47:33;;;;;;;29.20;11.15;;;14.40;69.20;;;;;;4973803;28;20063;-72
2022/12/01 17:49:58;;;;;;;29.60;14.75;;;14.30;69.80;;;;;;4995835;28;20054;-73